Ballypatrick Forest, United Kingdom
Current Conditions -  °F | °C
As of 4:50 PM on Saturday 22 Nov 2014 (Local Time) from EGPI Reporting Station
Few Clouds Few Clouds  
Wind Chill: 50°   Ceiling: Unl
Heat Index: 50°   Visibility: 6mi
Dew Point: 45°   Wind: 8mph
Humidity: 82%   Direction: 250°WSW
Pressure: 29.83"   Gusts: NA
Location:  55.18°N, 6.17°W
Report Text: EGPI 221650Z AUTO 25007KT 9999 FEW024/// 10/07 Q1010 RERA
Loading
Personal Weather Stations






























Interactive Weather Map New forecast layout! Learn more

10-Day Weather Forecast

Advertisements
Track Severe Weather on mobile